Terminal Aerodrome Forecast
Issued by NWS Jackson, MS

Home | Current Version | Previous Version | Text Only | Print | Product List | Glossary On
Versions: 1 2 3 4 5 6 7 8 9 10 11 12 13 14 15 16 17 18
000
FTUS44 KJAN 040221 AAC
TAFJAN
TAF AMD
KJAN 040221Z 0402/0424 00000KT P6SM FEW040 BKN150
     FM040700 19006KT P6SM VCSH BKN040
     FM041300 21005KT P6SM BKN060
     FM042000 24008KT 6SM -SHRA VCTS OVC050CB=

USA.gov is the U.S. government's official web portal to all federal, state and local government web resources and services.